Time;durP1;ratioP1;P1;durP2;ratioP2;P2;SDS_P1;SDS_P2;PMS_P1;PMS_P2;Temp;Humidity;BMP_temperature;BMP_pressure;BME280_temperature;BME280_humidity;BME280_pressure;Samples;Min_cycle;Max_cycle;Signal;HPM_P1;HPM_P2
2021/12/21 00:02:24;;;;;;;4.18;1.50;;;2.90;99.90;;;;;;4927000;29;20023;-74
2021/12/21 00:04:50;;;;;;;4.53;2.20;;;2.90;99.90;;;;;;4921686;29;20078;-75
2021/12/21 00:07:16;;;;;;;2.67;1.38;;;2.90;99.90;;;;;;4943917;29;20027;-75
2021/12/21 00:09:42;;;;;;;3.47;1.73;;;2.90;99.90;;;;;;4932397;29;20023;-75
2021/12/21 00:12:09;;;;;;;4.80;1.48;;;2.90;99.90;;;;;;4927034;29;20044;-74
2021/12/21 00:14:46;;;;;;;4.25;1.38;;;3.00;99.90;;;;;;4925857;29;20051;-75
2021/12/21 00:22:11;;;;;;;5.07;2.15;;;3.10;99.90;;;;;;4944378;29;20027;-73
2021/12/21 00:24:45;;;;;;;2.45;1.38;;;3.00;99.90;;;;;;4926638;29;20047;-73
2021/12/21 00:27:13;;;;;;;3.58;1.60;;;3.00;99.90;;;;;;4926969;29;20020;-73
2021/12/21 00:29:39;;;;;;;4.93;2.53;;;3.00;99.90;;;;;;4941686;29;20039;-73
2021/12/21 00:32:05;;;;;;;5.00;1.90;;;2.90;99.90;;;;;;4943712;29;20214;-74
2021/12/21 00:34:31;;;;;;;5.82;1.80;;;2.90;99.90;;;;;;4941618;29;20019;-74
2021/12/21 00:36:57;;;;;;;3.20;1.63;;;2.80;99.90;;;;;;4926725;29;20015;-74
2021/12/21 00:39:23;;;;;;;4.00;1.67;;;2.80;99.90;;;;;;4942773;29;20043;-74
2021/12/21 00:41:49;;;;;;;4.55;1.77;;;2.70;99.90;;;;;;4942787;29;20016;-74
2021/12/21 00:44:14;;;;;;;3.08;1.35;;;2.80;99.90;;;;;;4944269;29;20039;-73
2021/12/21 00:46:40;;;;;;;3.22;1.70;;;2.70;99.90;;;;;;4943254;29;20325;-74
2021/12/21 00:49:14;;;;;;;3.20;1.20;;;2.70;99.90;;;;;;4926096;29;20026;-75
2021/12/21 00:51:42;;;;;;;4.45;1.58;;;2.60;99.90;;;;;;4926215;29;20019;-75
2021/12/21 00:54:08;;;;;;;4.35;2.05;;;2.60;99.90;;;;;;4926785;29;20104;-75
2021/12/21 00:56:34;;;;;;;2.25;1.27;;;2.60;99.90;;;;;;4930175;29;20020;-75
2021/12/21 00:59:00;;;;;;;4.60;1.85;;;2.70;99.90;;;;;;4946189;29;20035;-75
2021/12/21 01:01:27;;;;;;;2.70;1.40;;;2.80;99.90;;;;;;4947132;29;20027;-74
2021/12/21 01:03:54;;;;;;;3.75;1.90;;;2.70;99.90;;;;;;4946016;29;20294;-72
2021/12/21 01:06:37;;;;;;;4.40;1.77;;;2.70;99.90;;;;;;4947464;29;20012;-73
2021/12/21 01:11:52;;;;;;;2.25;1.52;;;2.60;99.90;;;;;;4945558;29;20079;-74
2021/12/21 01:17:34;;;;;;;5.97;1.98;;;2.50;99.90;;;;;;4945732;29;20035;-74
2021/12/21 01:20:08;;;;;;;4.78;1.73;;;2.50;99.90;;;;;;4945872;29;20274;-74
2021/12/21 01:28:04;;;;;;;3.58;1.65;;;2.40;99.90;;;;;;4945861;29;20016;-74
2021/12/21 01:30:45;;;;;;;6.55;2.33;;;2.40;99.90;;;;;;4946963;29;20027;-73
2021/12/21 01:33:31;;;;;;;4.53;1.35;;;2.40;99.90;;;;;;4929715;29;20063;-74
2021/12/21 01:35:58;;;;;;;3.45;1.65;;;2.40;99.90;;;;;;4943511;29;20319;-74
2021/12/21 01:44:01;;;;;;;3.88;2.10;;;2.30;99.90;;;;;;4945641;29;20047;-74
2021/12/21 01:51:55;;;;;;;4.65;1.83;;;2.20;99.90;;;;;;4941029;29;20038;-73
2021/12/21 01:54:21;;;;;;;5.55;2.35;;;2.20;99.90;;;;;;4929259;29;20306;-74
2021/12/21 01:56:47;;;;;;;4.30;1.85;;;2.20;99.90;;;;;;4928475;29;20028;-73
2021/12/21 01:59:13;;;;;;;5.32;1.80;;;2.10;99.90;;;;;;4935703;29;20038;-73
2021/12/21 02:01:39;;;;;;;5.40;2.22;;;2.10;99.90;;;;;;4928936;29;20206;-73
2021/12/21 02:04:04;;;;;;;2.92;2.15;;;2.10;99.90;;;;;;4929152;29;20035;-73
2021/12/21 02:06:30;;;;;;;5.28;2.20;;;2.10;99.90;;;;;;4945528;29;20042;-72
2021/12/21 02:08:56;;;;;;;5.13;2.95;;;2.10;99.90;;;;;;4927158;29;20120;-75
2021/12/21 02:11:22;;;;;;;5.85;2.35;;;2.10;99.90;;;;;;4928719;29;20158;-74
2021/12/21 02:13:50;;;;;;;5.13;2.33;;;2.10;99.90;;;;;;4928282;29;20066;-75
2021/12/21 02:16:24;;;;;;;4.55;1.83;;;2.10;99.90;;;;;;4929115;29;20027;-75
2021/12/21 02:19:04;;;;;;;3.53;1.77;;;2.10;99.90;;;;;;4942667;29;20102;-75
2021/12/21 02:21:36;;;;;;;3.75;2.30;;;2.10;99.90;;;;;;4928346;29;20047;-75
2021/12/21 02:24:08;;;;;;;4.82;2.38;;;2.10;99.90;;;;;;4928411;29;20031;-74
2021/12/21 02:26:40;;;;;;;4.20;2.17;;;2.10;99.90;;;;;;4943656;29;20023;-75
2021/12/21 02:29:16;;;;;;;4.28;2.15;;;2.10;99.90;;;;;;4944630;29;20017;-75
2021/12/21 02:31:49;;;;;;;4.57;2.10;;;2.10;99.90;;;;;;4927442;29;20027;-75
2021/12/21 02:34:17;;;;;;;8.35;1.83;;;2.00;99.90;;;;;;4945903;29;20023;-75
2021/12/21 02:36:45;;;;;;;3.90;2.30;;;2.00;99.90;;;;;;4927944;29;20043;-75
2021/12/21 02:39:13;;;;;;;4.00;2.28;;;2.00;99.90;;;;;;4927557;29;20091;-75
2021/12/21 02:41:39;;;;;;;6.75;2.05;;;1.90;99.90;;;;;;4928147;29;20075;-74
2021/12/21 02:44:05;;;;;;;4.13;1.70;;;2.00;99.90;;;;;;4945032;29;20012;-73
2021/12/21 02:46:31;;;;;;;5.35;2.35;;;1.90;99.90;;;;;;4942112;29;20058;-73
2021/12/21 02:48:57;;;;;;;3.40;1.67;;;1.90;99.90;;;;;;4921070;29;20024;-73
2021/12/21 02:51:23;;;;;;;4.28;2.03;;;1.90;99.90;;;;;;4920745;29;20039;-73
2021/12/21 02:53:49;;;;;;;3.20;1.70;;;1.90;99.90;;;;;;4920466;29;20035;-72
2021/12/21 02:56:16;;;;;;;3.20;1.83;;;1.90;99.90;;;;;;4903603;29;20024;-74
2021/12/21 02:58:42;;;;;;;2.92;1.88;;;1.90;99.90;;;;;;4907543;29;20027;-75
2021/12/21 03:01:10;;;;;;;7.15;1.98;;;1.90;99.90;;;;;;4920195;29;20051;-75
2021/12/21 03:03:35;;;;;;;4.45;1.80;;;1.90;99.90;;;;;;4904049;29;20116;-74
2021/12/21 03:06:05;;;;;;;4.53;1.85;;;1.90;99.90;;;;;;4916520;29;20159;-75
2021/12/21 03:08:41;;;;;;;3.40;1.70;;;1.90;99.90;;;;;;4921928;29;20443;-74
2021/12/21 03:11:56;;;;;;;8.50;2.17;;;1.90;99.90;;;;;;4919900;29;20036;-74
2021/12/21 03:14:05;;;;;;;5.07;2.17;;;1.80;99.90;;;;;;4907982;29;20315;-73
2021/12/21 03:16:37;;;;;;;2.63;1.50;;;1.80;99.90;;;;;;4921535;29;20020;-74
2021/12/21 03:19:04;;;;;;;4.47;1.52;;;1.80;99.90;;;;;;4921667;29;20035;-74
2021/12/21 03:21:30;;;;;;;3.80;1.65;;;1.80;99.90;;;;;;4922668;29;20020;-74
2021/12/21 03:23:56;;;;;;;2.95;1.30;;;1.80;99.90;;;;;;4903773;29;20047;-75
2021/12/21 03:26:22;;;;;;;4.65;1.40;;;1.80;99.90;;;;;;4922063;29;20474;-75
2021/12/21 03:28:48;;;;;;;4.20;1.33;;;1.80;99.90;;;;;;4919105;29;20058;-75
2021/12/21 03:31:14;;;;;;;2.05;1.27;;;1.80;99.90;;;;;;4919608;29;20035;-75
2021/12/21 03:33:40;;;;;;;3.20;1.20;;;1.80;99.90;;;;;;4918172;29;20032;-75
2021/12/21 03:36:05;;;;;;;3.00;1.45;;;1.80;99.90;;;;;;4939959;29;20028;-75
2021/12/21 03:38:32;;;;;;;2.67;1.50;;;1.80;99.90;;;;;;4941866;29;20282;-75
2021/12/21 03:41:04;;;;;;;2.70;1.40;;;1.70;99.90;;;;;;4924826;29;20020;-74
2021/12/21 03:43:31;;;;;;;3.97;1.60;;;1.70;99.90;;;;;;4926084;29;20091;-74
2021/12/21 03:46:10;;;;;;;2.50;1.13;;;1.70;99.90;;;;;;4915497;29;20024;-75
2021/12/21 03:48:36;;;;;;;;;;;1.70;99.90;;;;;;4942801;29;20059;-75
2021/12/21 03:51:03;;;;;;;1.73;1.05;;;1.70;99.90;;;;;;4917052;29;19903;-73
2021/12/21 03:53:29;;;;;;;3.10;1.08;;;1.70;99.90;;;;;;4927425;29;20050;-73
2021/12/21 03:56:11;;;;;;;3.30;1.25;;;1.70;99.90;;;;;;4926399;29;20377;-73
2021/12/21 03:58:36;;;;;;;3.47;1.15;;;1.70;99.90;;;;;;4925336;29;20028;-73
2021/12/21 04:01:03;;;;;;;8.23;1.35;;;1.70;99.90;;;;;;4924961;29;20106;-73
2021/12/21 04:03:28;;;;;;;1.27;0.70;;;1.70;99.90;;;;;;4925618;29;20062;-73
2021/12/21 04:05:54;;;;;;;3.58;1.23;;;1.70;99.90;;;;;;4908252;29;20192;-73
2021/12/21 04:08:20;;;;;;;2.22;1.10;;;1.70;99.90;;;;;;4921110;29;20024;-73
2021/12/21 04:10:46;;;;;;;1.98;1.05;;;1.70;99.90;;;;;;4925176;29;20035;-74
2021/12/21 04:13:12;;;;;;;2.35;0.93;;;1.70;99.90;;;;;;4908855;29;20040;-75
2021/12/21 04:15:44;;;;;;;3.10;0.90;;;1.60;99.90;;;;;;4933570;29;20023;-76
2021/12/21 04:18:13;;;;;;;3.60;1.10;;;1.60;99.90;;;;;;4926967;29;20290;-74
2021/12/21 04:20:40;;;;;;;1.80;1.08;;;1.60;99.90;;;;;;4926750;29;20028;-75
2021/12/21 04:23:07;;;;;;;1.95;0.80;;;1.60;99.90;;;;;;4943266;29;20362;-76
2021/12/21 04:25:34;;;;;;;5.28;0.98;;;1.70;99.90;;;;;;4927106;29;20087;-74
2021/12/21 04:28:00;;;;;;;3.50;0.82;;;1.60;99.90;;;;;;4926720;29;20020;-75
2021/12/21 04:30:26;;;;;;;4.15;1.45;;;1.70;99.90;;;;;;4945582;29;20046;-74
2021/12/21 04:32:52;;;;;;;2.70;0.90;;;1.60;99.90;;;;;;4930639;29;20070;-74
2021/12/21 04:35:20;;;;;;;4.75;1.73;;;1.60;99.90;;;;;;4948320;29;20049;-73
2021/12/21 04:37:51;;;;;;;5.67;0.90;;;1.60;99.90;;;;;;4947794;29;20314;-74
2021/12/21 04:40:20;;;;;;;1.70;0.70;;;1.60;99.90;;;;;;4942025;29;20023;-75
2021/12/21 04:42:45;;;;;;;;;;;1.60;99.90;;;;;;4948475;29;20051;-75
2021/12/21 04:45:11;;;;;;;1.98;1.15;;;1.50;99.90;;;;;;4930857;29;19902;-75
2021/12/21 04:47:36;;;;;;;2.15;1.08;;;1.50;99.90;;;;;;4948298;29;20027;-74
2021/12/21 04:50:03;;;;;;;2.80;1.10;;;1.50;99.90;;;;;;4946516;29;20330;-73
2021/12/21 04:52:28;;;;;;;2.08;1.25;;;1.50;99.90;;;;;;4929876;29;20138;-73
2021/12/21 04:54:57;;;;;;;4.90;1.50;;;1.50;99.90;;;;;;4929918;29;20023;-73
2021/12/21 04:57:23;;;;;;;3.08;1.40;;;1.50;99.90;;;;;;4931078;29;20107;-73
2021/12/21 04:59:49;;;;;;;3.00;1.33;;;1.50;99.90;;;;;;4929634;29;20295;-72
2021/12/21 05:02:15;;;;;;;2.45;1.25;;;1.50;99.90;;;;;;4947025;29;20055;-73
2021/12/21 05:04:41;;;;;;;2.72;1.33;;;1.50;99.90;;;;;;4947944;29;20235;-77
2021/12/21 05:07:06;;;;;;;2.35;1.13;;;1.50;99.90;;;;;;4929661;29;20020;-75
2021/12/21 05:09:41;;;;;;;3.13;1.02;;;1.40;99.90;;;;;;4921075;29;20063;-72
2021/12/21 05:12:11;;;;;;;7.95;1.15;;;1.50;99.90;;;;;;4920806;29;20272;-73
2021/12/21 05:14:36;;;;;;;1.55;0.85;;;1.40;99.90;;;;;;4925250;29;20035;-73
2021/12/21 05:17:21;;;;;;;2.97;1.02;;;1.40;99.90;;;;;;4921679;29;20247;-73
2021/12/21 05:19:47;;;;;;;3.03;1.40;;;1.40;99.90;;;;;;4922844;29;20024;-73
2021/12/21 05:22:12;;;;;;;2.83;1.10;;;1.40;99.90;;;;;;4926630;29;20080;-74
2021/12/21 05:24:39;;;;;;;2.63;1.00;;;1.50;99.90;;;;;;4928463;29;20043;-74
2021/12/21 05:27:06;;;;;;;2.83;1.63;;;1.40;99.90;;;;;;4929270;29;20024;-74
2021/12/21 05:29:32;;;;;;;1.88;1.13;;;1.40;99.90;;;;;;4922565;29;20028;-75
2021/12/21 05:32:01;;;;;;;1.65;1.10;;;1.40;99.90;;;;;;4910602;29;20024;-74
2021/12/21 05:34:28;;;;;;;3.20;1.50;;;1.40;99.90;;;;;;4918042;29;20222;-75
2021/12/21 05:36:54;;;;;;;4.90;1.50;;;1.40;99.90;;;;;;4946560;29;20019;-75
2021/12/21 05:39:24;;;;;;;4.57;1.60;;;1.40;99.90;;;;;;4924481;29;20035;-75
2021/12/21 05:41:52;;;;;;;2.53;1.30;;;1.40;99.90;;;;;;4909824;29;20303;-75
2021/12/21 05:44:20;;;;;;;1.92;0.98;;;1.40;99.90;;;;;;4928013;29;20044;-74
2021/12/21 05:46:46;;;;;;;2.63;1.50;;;1.40;99.90;;;;;;4929160;29;20039;-75
2021/12/21 05:49:12;;;;;;;6.05;2.30;;;1.30;99.90;;;;;;4939486;29;20577;-75
2021/12/21 05:51:37;;;;;;;4.63;1.20;;;1.30;99.90;;;;;;4911028;29;20031;-75
2021/12/21 05:54:04;;;;;;;4.80;1.45;;;1.40;99.90;;;;;;4916289;29;20111;-75
2021/12/21 05:56:30;;;;;;;3.45;1.45;;;1.40;99.90;;;;;;4946129;29;20023;-75
2021/12/21 05:58:57;;;;;;;4.82;1.45;;;1.30;99.90;;;;;;4926917;29;20141;-73
2021/12/21 06:01:23;;;;;;;3.70;1.67;;;1.40;99.90;;;;;;4928113;29;20028;-72
2021/12/21 06:03:49;;;;;;;6.07;1.27;;;1.40;99.90;;;;;;4910812;29;20024;-72
2021/12/21 06:06:16;;;;;;;3.47;1.40;;;1.40;99.90;;;;;;4912557;29;20028;-72
2021/12/21 06:08:44;;;;;;;5.88;1.83;;;1.30;99.90;;;;;;4936901;29;20091;-76
2021/12/21 06:11:11;;;;;;;3.42;1.42;;;1.40;99.90;;;;;;4920712;29;20115;-77
2021/12/21 06:14:11;;;;;;;4.47;1.70;;;1.40;99.90;;;;;;4936974;29;20075;-74
2021/12/21 06:25:25;;;;;;;4.50;1.70;;;1.40;99.90;;;;;;4937689;29;20325;-75
2021/12/21 06:27:35;;;;;;;6.80;2.47;;;1.40;99.90;;;;;;4935410;29;20031;-76
2021/12/21 06:30:03;;;;;;;6.75;1.83;;;1.40;99.90;;;;;;4918269;29;20083;-80
2021/12/21 06:32:29;;;;;;;6.23;1.70;;;1.40;99.90;;;;;;4920524;29;20029;-71
2021/12/21 06:34:55;;;;;;;6.25;2.08;;;1.30;99.90;;;;;;4917193;29;20020;-74
2021/12/21 06:37:21;;;;;;;2.90;1.63;;;1.30;99.90;;;;;;4936151;29;20040;-72
2021/12/21 06:39:48;;;;;;;3.60;1.65;;;1.30;99.90;;;;;;4935769;29;20321;-73
2021/12/21 06:42:14;;;;;;;4.13;2.80;;;1.30;99.90;;;;;;4937070;29;20314;-72
2021/12/21 06:44:43;;;;;;;6.53;1.48;;;1.30;99.90;;;;;;4917828;29;20020;-68
2021/12/21 06:52:42;;;;;;;4.90;2.03;;;1.30;99.90;;;;;;4945570;29;20226;-74
2021/12/21 06:55:08;;;;;;;5.55;2.05;;;1.40;99.90;;;;;;4927003;29;20031;-74
2021/12/21 06:57:34;;;;;;;8.95;3.10;;;1.40;99.90;;;;;;4928228;29;20311;-74
2021/12/21 07:00:01;;;;;;;7.88;2.60;;;1.30;99.90;;;;;;4945118;29;20082;-74
2021/12/21 07:02:27;;;;;;;10.77;2.90;;;1.30;99.90;;;;;;4945036;29;20027;-74
2021/12/21 07:04:53;;;;;;;7.45;3.05;;;1.30;99.90;;;;;;4945637;29;20038;-72
2021/12/21 07:07:19;;;;;;;9.48;3.08;;;1.30;99.90;;;;;;4927558;29;20047;-70
2021/12/21 07:09:54;;;;;;;9.38;2.65;;;1.40;99.90;;;;;;4945345;29;20306;-74
2021/12/21 07:18:06;;;;;;;7.47;2.60;;;1.30;99.90;;;;;;4940159;29;20124;-71
2021/12/21 07:20:32;;;;;;;5.07;1.60;;;1.30;99.90;;;;;;4946008;29;20131;-70
2021/12/21 07:22:58;;;;;;;6.47;2.53;;;1.30;99.90;;;;;;4946712;29;20218;-72
2021/12/21 07:25:27;;;;;;;5.30;2.88;;;1.30;99.90;;;;;;4945492;29;20086;-71
2021/12/21 07:27:54;;;;;;;13.75;3.78;;;1.40;99.90;;;;;;4927879;29;20122;-74
2021/12/21 07:30:20;;;;;;;4.38;2.03;;;1.30;99.90;;;;;;4928161;29;20263;-74
2021/12/21 07:32:46;;;;;;;8.07;2.80;;;1.40;99.90;;;;;;4944793;29;20038;-75
2021/12/21 07:35:12;;;;;;;4.20;2.10;;;1.40;99.90;;;;;;4926417;29;20020;-75
2021/12/21 07:37:38;;;;;;;5.43;3.45;;;1.40;99.90;;;;;;4927880;29;20022;-74
2021/12/21 07:40:05;;;;;;;5.18;2.30;;;1.50;99.90;;;;;;4927221;29;20291;-72
2021/12/21 07:42:31;;;;;;;6.90;2.35;;;1.50;99.90;;;;;;4927582;29;20030;-72
2021/12/21 07:44:58;;;;;;;8.00;2.58;;;1.50;99.90;;;;;;4926537;29;20298;-72
2021/12/21 07:47:24;;;;;;;5.50;2.65;;;1.50;99.90;;;;;;4940400;29;20033;-72
2021/12/21 07:49:50;;;;;;;6.63;2.95;;;1.60;99.90;;;;;;4940429;29;20318;-71
2021/12/21 07:52:17;;;;;;;9.75;2.63;;;1.60;99.90;;;;;;4926858;29;20034;-72
2021/12/21 07:54:43;;;;;;;6.68;2.63;;;1.60;99.90;;;;;;4927405;29;20026;-73
2021/12/21 07:57:09;;;;;;;11.32;2.50;;;1.60;99.90;;;;;;4936882;29;20087;-75
2021/12/21 07:59:37;;;;;;;9.98;2.67;;;1.60;99.90;;;;;;4928108;29;20024;-73
2021/12/21 08:02:04;;;;;;;4.50;2.30;;;1.60;99.90;;;;;;4927660;29;20020;-73
2021/12/21 08:04:32;;;;;;;11.10;3.78;;;1.70;99.90;;;;;;4947648;29;20027;-73
2021/12/21 08:07:04;;;;;;;4.60;2.42;;;1.70;99.90;;;;;;4933257;29;20086;-73
2021/12/21 08:09:37;;;;;;;5.97;2.97;;;1.80;99.90;;;;;;4949713;29;20020;-73
2021/12/21 08:12:18;;;;;;;5.88;2.08;;;1.90;99.90;;;;;;4933373;29;20051;-74
2021/12/21 08:14:46;;;;;;;4.45;2.33;;;1.90;99.90;;;;;;4938553;29;20318;-75
2021/12/21 08:17:13;;;;;;;5.38;3.35;;;2.00;99.90;;;;;;4935925;29;20020;-73
2021/12/21 08:19:38;;;;;;;8.23;2.30;;;2.00;99.90;;;;;;4934060;29;20028;-75
2021/12/21 08:22:05;;;;;;;5.22;2.40;;;2.00;99.90;;;;;;4934042;29;20023;-74
2021/12/21 08:24:31;;;;;;;7.13;2.80;;;2.10;99.90;;;;;;4951634;29;20092;-72
2021/12/21 08:26:59;;;;;;;8.20;3.40;;;2.00;99.90;;;;;;4950450;29;20024;-73
2021/12/21 08:29:25;;;;;;;7.80;3.63;;;2.00;99.90;;;;;;4945015;29;20019;-73
2021/12/21 08:31:51;;;;;;;4.35;2.60;;;2.00;99.90;;;;;;4953729;29;20086;-71
2021/12/21 08:34:17;;;;;;;5.63;3.05;;;2.00;99.90;;;;;;4933923;29;20301;-72
2021/12/21 08:36:43;;;;;;;28.95;4.45;;;2.00;99.90;;;;;;4946213;29;20135;-69
2021/12/21 08:39:10;;;;;;;3.90;2.70;;;2.00;99.90;;;;;;4925139;29;20031;-71
2021/12/21 08:41:41;;;;;;;4.55;2.70;;;2.00;99.90;;;;;;4943297;29;20034;-73
2021/12/21 08:44:09;;;;;;;6.30;2.42;;;2.10;99.90;;;;;;4939335;29;20382;-73
2021/12/21 08:46:35;;;;;;;5.18;2.90;;;2.10;99.90;;;;;;4923921;29;20354;-73
2021/12/21 08:49:00;;;;;;;13.15;2.60;;;2.10;99.90;;;;;;4927732;29;20091;-75
2021/12/21 08:51:26;;;;;;;10.55;3.55;;;2.10;99.90;;;;;;4925051;29;20020;-74
2021/12/21 08:53:53;;;;;;;12.90;3.20;;;2.20;99.90;;;;;;4944134;29;20031;-79
2021/12/21 08:56:18;;;;;;;6.28;3.40;;;2.10;99.90;;;;;;4927753;29;20034;-80
2021/12/21 08:58:44;;;;;;;9.82;2.85;;;2.10;99.90;;;;;;4919706;29;20023;-77
2021/12/21 09:01:10;;;;;;;6.30;2.85;;;2.10;99.90;;;;;;4937179;29;20306;-80
2021/12/21 09:03:37;;;;;;;4.45;3.00;;;2.10;99.90;;;;;;4953525;29;20024;-82
2021/12/21 09:06:03;;;;;;;3.22;1.38;;;2.10;99.90;;;;;;4938696;29;20246;-79
2021/12/21 09:08:29;;;;;;;2.85;1.80;;;2.10;99.90;;;;;;4939510;29;20055;-78
2021/12/21 09:11:02;;;;;;;4.55;1.80;;;2.10;99.90;;;;;;4953767;29;20047;-79
2021/12/21 09:13:28;;;;;;;4.88;1.80;;;2.10;99.90;;;;;;4935828;29;20039;-76
2021/12/21 09:15:54;;;;;;;2.83;1.70;;;2.20;99.90;;;;;;4953409;28;20154;-70
2021/12/21 09:18:20;;;;;;;7.03;2.25;;;2.20;99.90;;;;;;4934904;29;20078;-70
2021/12/21 09:20:45;;;;;;;5.00;2.17;;;2.20;99.90;;;;;;4942443;29;20024;-79
2021/12/21 09:23:12;;;;;;;6.50;3.53;;;2.20;99.90;;;;;;4935401;29;20307;-76
2021/12/21 09:25:38;;;;;;;5.07;2.40;;;2.20;99.90;;;;;;4950442;29;20020;-78
2021/12/21 09:28:04;;;;;;;13.05;3.95;;;2.20;99.90;;;;;;4933859;29;20019;-77
2021/12/21 09:30:31;;;;;;;3.08;2.13;;;2.30;99.90;;;;;;4927288;29;20062;-73
2021/12/21 09:32:58;;;;;;;5.18;2.30;;;2.30;99.90;;;;;;4941256;29;20206;-76
2021/12/21 09:35:24;;;;;;;7.28;1.88;;;2.30;99.90;;;;;;4920423;29;20107;-74
2021/12/21 09:37:50;;;;;;;3.58;1.27;;;2.30;99.90;;;;;;4920556;29;20247;-75
2021/12/21 09:40:20;;;;;;;1.60;1.13;;;2.30;99.90;;;;;;4922507;29;20032;-76
2021/12/21 09:42:46;;;;;;;3.88;1.63;;;2.40;99.90;;;;;;4942932;29;20034;-70
2021/12/21 09:45:14;;;;;;;7.47;1.98;;;2.40;99.90;;;;;;4941640;29;20030;-71
2021/12/21 09:47:39;;;;;;;3.60;1.42;;;2.40;99.90;;;;;;4927929;29;20094;-71
2021/12/21 09:50:07;;;;;;;4.82;1.55;;;2.40;99.90;;;;;;4942340;29;20036;-70
2021/12/21 09:52:34;;;;;;;4.22;1.63;;;2.40;99.90;;;;;;4944370;29;20059;-71
2021/12/21 09:55:03;;;;;;;5.63;1.27;;;2.40;99.90;;;;;;4943700;29;20095;-71
2021/12/21 09:57:28;;;;;;;4.75;1.33;;;2.50;99.90;;;;;;4945489;29;20038;-71
2021/12/21 09:59:54;;;;;;;1.83;0.98;;;2.60;99.90;;;;;;4945855;29;20267;-73
2021/12/21 10:02:25;;;;;;;4.80;1.83;;;2.60;99.90;;;;;;4927158;29;20035;-72
2021/12/21 10:04:51;;;;;;;5.60;1.83;;;2.60;99.90;;;;;;4925691;29;20027;-72
2021/12/21 10:07:18;;;;;;;6.10;1.27;;;2.60;99.90;;;;;;4927753;29;20234;-72
2021/12/21 10:09:47;;;;;;;1.67;0.90;;;2.60;99.90;;;;;;4945624;29;20024;-72
2021/12/21 10:12:14;;;;;;;2.28;0.60;;;2.60;99.90;;;;;;4939048;29;20044;-72
2021/12/21 10:14:40;;;;;;;1.60;0.68;;;2.70;99.90;;;;;;4942954;29;20024;-74
2021/12/21 10:19:53;;;;;;;2.13;0.90;;;2.70;99.90;;;;;;4943630;29;20259;-74
2021/12/21 10:22:18;;;;;;;2.55;1.08;;;2.60;99.90;;;;;;4935625;29;20310;-75
2021/12/21 10:24:52;;;;;;;2.03;0.85;;;2.70;99.90;;;;;;4928746;29;20213;-74
2021/12/21 10:27:22;;;;;;;4.05;1.00;;;2.60;99.90;;;;;;4942239;29;20254;-75
2021/12/21 10:29:57;;;;;;;1.67;0.90;;;2.60;99.90;;;;;;4924372;29;20043;-73
2021/12/21 10:32:29;;;;;;;3.53;1.08;;;2.70;99.90;;;;;;4941011;29;20028;-74
2021/12/21 10:35:00;;;;;;;2.53;0.85;;;2.70;99.90;;;;;;4923367;29;20050;-73
2021/12/21 10:37:33;;;;;;;2.05;1.20;;;2.70;99.90;;;;;;4942753;29;20095;-73
2021/12/21 10:40:24;;;;;;;2.60;1.10;;;2.70;99.90;;;;;;4925301;29;20066;-73
2021/12/21 10:42:51;;;;;;;2.97;1.27;;;2.70;99.90;;;;;;4925283;29;20030;-73
2021/12/21 10:45:22;;;;;;;5.30;0.88;;;2.70;99.90;;;;;;4926017;29;20515;-72
2021/12/21 10:47:49;;;;;;;1.40;0.80;;;2.70;99.90;;;;;;4927949;29;20023;-73
2021/12/21 10:50:15;;;;;;;1.40;0.98;;;2.70;99.90;;;;;;4925960;29;20328;-72
2021/12/21 10:52:51;;;;;;;2.65;0.98;;;2.70;99.90;;;;;;4928042;29;20042;-71
2021/12/21 10:55:23;;;;;;;5.65;0.80;;;2.80;99.90;;;;;;4941076;29;20254;-72
2021/12/21 10:58:07;;;;;;;7.00;0.75;;;2.70;99.90;;;;;;4924648;29;20143;-74
2021/12/21 11:00:35;;;;;;;1.73;1.10;;;2.70;99.90;;;;;;4944331;29;20144;-73
2021/12/21 11:03:01;;;;;;;2.78;0.80;;;2.70;99.90;;;;;;4941084;29;20028;-74
2021/12/21 11:05:27;;;;;;;2.28;0.68;;;2.70;99.90;;;;;;4927903;29;20034;-73
2021/12/21 11:07:56;;;;;;;4.20;1.35;;;2.80;99.90;;;;;;4928145;29;20210;-74
2021/12/21 11:10:32;;;;;;;3.35;0.95;;;2.90;99.90;;;;;;4932744;29;20027;-74
2021/12/21 11:12:59;;;;;;;1.73;0.80;;;2.90;99.90;;;;;;4944450;29;20055;-74
2021/12/21 11:15:31;;;;;;;1.45;0.75;;;2.90;99.90;;;;;;4942437;29;20063;-73
2021/12/21 11:18:04;;;;;;;3.80;0.70;;;2.90;99.90;;;;;;4924916;29;20386;-73
2021/12/21 11:20:30;;;;;;;12.80;3.95;;;2.90;99.90;;;;;;4927539;29;20103;-72
2021/12/21 11:22:56;;;;;;;3.10;1.15;;;2.90;99.90;;;;;;4943967;29;20082;-72
2021/12/21 11:25:23;;;;;;;1.60;0.73;;;2.90;99.90;;;;;;4923839;29;20023;-72
2021/12/21 11:27:51;;;;;;;1.70;0.98;;;3.00;99.90;;;;;;4927901;29;20030;-72
2021/12/21 11:30:20;;;;;;;3.60;0.85;;;3.00;99.90;;;;;;4925157;29;20295;-72
2021/12/21 11:32:49;;;;;;;11.00;2.15;;;3.00;99.90;;;;;;4927104;29;20349;-72
2021/12/21 11:37:52;;;;;;;9.73;2.10;;;3.10;99.90;;;;;;4943605;29;20019;-72
2021/12/21 11:40:22;;;;;;;2.55;0.82;;;3.10;99.90;;;;;;4940649;29;20091;-73
2021/12/21 11:42:50;;;;;;;2.60;0.93;;;3.10;99.90;;;;;;4927319;29;20323;-72
2021/12/21 11:45:41;;;;;;;3.08;0.90;;;3.20;99.90;;;;;;4926445;29;20300;-73
2021/12/21 11:48:09;;;;;;;2.33;0.75;;;3.20;99.90;;;;;;4944044;29;20271;-72
2021/12/21 11:50:39;;;;;;;4.18;0.70;;;3.30;99.90;;;;;;4926560;29;20119;-71
2021/12/21 11:53:07;;;;;;;2.70;1.15;;;3.30;99.90;;;;;;4923926;29;20118;-72
2021/12/21 11:55:36;;;;;;;4.93;0.65;;;3.30;99.90;;;;;;4943637;29;20039;-71
2021/12/21 11:58:14;;;;;;;;;;;3.30;99.90;;;;;;4924286;29;20290;-72
2021/12/21 12:00:52;;;;;;;1.63;0.60;;;3.30;99.90;;;;;;4927115;29;19915;-72
2021/12/21 12:03:22;;;;;;;2.33;0.57;;;3.30;99.90;;;;;;4921849;29;20417;-72
2021/12/21 12:05:56;;;;;;;2.55;0.57;;;3.30;99.90;;;;;;4926971;29;20050;-72
2021/12/21 12:08:24;;;;;;;1.48;0.80;;;3.40;99.90;;;;;;4926667;29;20320;-72
2021/12/21 12:10:58;;;;;;;6.70;0.82;;;3.40;99.90;;;;;;4943719;29;20083;-72
2021/12/21 12:13:40;;;;;;;2.67;1.00;;;3.40;99.90;;;;;;4921038;29;20086;-72
2021/12/21 12:16:12;;;;;;;2.85;0.60;;;3.40;99.90;;;;;;4924494;29;20071;-73
2021/12/21 12:18:44;;;;;;;2.65;1.52;;;3.40;99.90;;;;;;4943873;29;20087;-72
2021/12/21 12:21:30;;;;;;;2.97;1.00;;;3.40;99.90;;;;;;4923718;29;20016;-73
2021/12/21 12:24:02;;;;;;;2.53;1.00;;;3.30;99.90;;;;;;4925010;29;20074;-72
2021/12/21 12:26:30;;;;;;;3.80;1.02;;;3.30;99.90;;;;;;4943747;29;20023;-73
2021/12/21 12:29:09;;;;;;;2.65;0.75;;;3.40;99.90;;;;;;4926029;29;20342;-72
2021/12/21 12:31:38;;;;;;;0.63;0.32;;;3.40;99.90;;;;;;4925719;29;20028;-71
2021/12/21 12:34:05;;;;;;;1.70;0.70;;;3.40;99.90;;;;;;4943146;29;20038;-73
2021/12/21 12:36:35;;;;;;;4.43;2.38;;;3.30;99.90;;;;;;4943726;29;20036;-73
2021/12/21 12:41:46;;;;;;;3.03;1.65;;;3.40;99.90;;;;;;4940702;29;20038;-72
2021/12/21 12:44:25;;;;;;;3.63;1.67;;;3.50;99.90;;;;;;4937252;29;20333;-72
2021/12/21 12:46:53;;;;;;;2.63;1.40;;;3.50;99.90;;;;;;4941024;29;20019;-73
2021/12/21 12:49:30;;;;;;;4.65;0.77;;;3.50;99.90;;;;;;4942584;29;20083;-73
2021/12/21 12:52:13;;;;;;;6.93;2.97;;;3.40;99.90;;;;;;4944993;29;20092;-72
2021/12/21 12:54:51;;;;;;;6.40;2.92;;;3.30;99.90;;;;;;4930641;29;20122;-72
2021/12/21 12:57:30;;;;;;;7.47;3.00;;;3.30;99.90;;;;;;4938460;29;20565;-74
2021/12/21 13:00:06;;;;;;;7.28;2.70;;;3.40;99.90;;;;;;4945899;29;20298;-73
2021/12/21 13:02:31;;;;;;;8.05;2.42;;;3.40;99.90;;;;;;4946916;29;20062;-76
2021/12/21 13:04:58;;;;;;;1.65;1.10;;;3.40;99.90;;;;;;4947611;29;20047;-73
2021/12/21 13:07:27;;;;;;;8.50;4.97;;;3.50;99.90;;;;;;4929330;29;20023;-77
2021/12/21 13:10:06;;;;;;;2.65;1.48;;;3.40;99.90;;;;;;4930097;29;20030;-75
2021/12/21 13:12:31;;;;;;;2.15;1.40;;;3.50;99.90;;;;;;4947117;29;20056;-74
2021/12/21 13:14:57;;;;;;;4.47;1.23;;;3.40;99.90;;;;;;4926455;29;20087;-74
2021/12/21 13:17:23;;;;;;;4.50;2.08;;;3.50;99.90;;;;;;4944912;29;20036;-75
2021/12/21 13:19:48;;;;;;;3.10;1.75;;;3.50;99.90;;;;;;4946918;29;20030;-75
2021/12/21 13:22:21;;;;;;;4.30;1.60;;;3.40;99.90;;;;;;4944846;29;20082;-74
2021/12/21 13:24:48;;;;;;;4.72;1.58;;;3.40;99.90;;;;;;4943778;29;20334;-74
2021/12/21 13:27:14;;;;;;;3.25;1.15;;;3.40;99.90;;;;;;4946276;29;20039;-75
2021/12/21 13:29:42;;;;;;;2.25;0.77;;;3.30;99.90;;;;;;4930062;29;20023;-78
2021/12/21 13:32:11;;;;;;;2.10;1.00;;;3.40;99.90;;;;;;4926287;29;20024;-75
2021/12/21 13:34:39;;;;;;;1.42;0.70;;;3.30;99.90;;;;;;4946286;29;20036;-75
2021/12/21 13:37:08;;;;;;;3.30;0.95;;;3.30;99.90;;;;;;4941904;29;20039;-75
2021/12/21 13:39:38;;;;;;;4.03;0.98;;;3.30;99.90;;;;;;4928557;29;20070;-75
2021/12/21 13:42:07;;;;;;;4.45;1.50;;;3.30;99.90;;;;;;4928679;29;20823;-74
2021/12/21 13:44:42;;;;;;;4.82;1.17;;;3.30;99.90;;;;;;4929619;29;20283;-75
2021/12/21 13:47:18;;;;;;;5.68;1.67;;;3.30;99.90;;;;;;4927974;29;20072;-75
2021/12/21 13:49:58;;;;;;;3.88;1.90;;;3.30;99.90;;;;;;4925972;29;20023;-74
2021/12/21 13:52:28;;;;;;;5.53;2.22;;;3.40;99.90;;;;;;4926156;29;20074;-74
2021/12/21 13:54:54;;;;;;;5.32;3.20;;;3.30;99.90;;;;;;4946085;29;20020;-75
2021/12/21 13:57:22;;;;;;;3.67;1.90;;;3.30;99.90;;;;;;4928576;29;20251;-75
2021/12/21 13:59:52;;;;;;;2.70;1.45;;;3.40;99.90;;;;;;4929210;29;20020;-72
2021/12/21 14:02:25;;;;;;;4.05;2.38;;;3.40;99.90;;;;;;4927693;29;20144;-78